Time;durP1;ratioP1;P1;durP2;ratioP2;P2;SDS_P1;SDS_P2;PMS_P1;PMS_P2;Temp;Humidity;BMP_temperature;BMP_pressure;BME280_temperature;BME280_humidity;BME280_pressure;Samples;Min_cycle;Max_cycle;Signal;HPM_P1;HPM_P2
2024/01/12 00:05:46;;;;;;;0.45;0.38;;;;;;;0.80;85.87;102597.63;15668870;28;20048;-44
2024/01/12 00:13:22;;;;;;;0.10;0.10;;;;;;;0.95;85.41;102606.31;15671850;28;20049;-46
2024/01/12 00:20:58;;;;;;;1.63;0.57;;;;;;;0.63;85.47;102616.34;15664308;28;20611;-49
2024/01/12 00:28:33;;;;;;;;;;;;;;;1.42;83.80;102613.69;15671057;22;20056;-55
2024/01/12 00:36:07;;;;;;;0.98;0.45;;;;;;;1.32;83.53;102617.94;15655165;28;20349;-54
2024/01/12 00:43:42;;;;;;;0.10;0.08;;;;;;;0.85;84.46;102626.38;15653922;28;20064;-56
2024/01/12 00:51:15;;;;;;;0.00;0.00;;;;;;;1.13;83.63;102623.63;15651186;28;20432;-53
2024/01/12 00:58:49;;;;;;;0.22;0.22;;;;;;;0.66;85.44;102609.09;15670904;28;20045;-52
2024/01/12 01:06:23;;;;;;;0.20;0.20;;;;;;;0.18;88.05;102607.78;15669378;28;20052;-53
2024/01/12 01:13:57;;;;;;;;;;;;;;;0.80;85.91;102608.19;15642839;28;20075;-52
2024/01/12 01:21:30;;;;;;;0.00;0.00;;;;;;;0.69;85.69;102606.22;15669036;28;20331;-53
2024/01/12 01:29:05;;;;;;;0.28;0.28;;;;;;;0.77;85.00;102606.56;15678757;28;20141;-54
2024/01/12 01:36:39;;;;;;;0.20;0.20;;;;;;;1.16;84.31;102604.03;15681458;28;20057;-53
2024/01/12 01:44:17;;;;;;;0.35;0.35;;;;;;;1.21;84.32;102600.16;15681626;28;20095;-51
2024/01/12 01:51:52;;;;;;;0.35;0.35;;;;;;;1.08;83.61;102580.75;15680169;28;20033;-52
2024/01/12 01:59:32;;;;;;;0.15;0.15;;;;;;;1.02;84.28;102603.16;15680081;28;20115;-54
2024/01/12 02:07:06;;;;;;;0.20;0.20;;;;;;;0.85;84.35;102592.88;15679704;28;20128;-51
2024/01/12 02:14:41;;;;;;;0.15;0.15;;;;;;;1.01;84.50;102576.81;15679422;28;20498;-54
2024/01/12 02:22:16;;;;;;;0.20;0.20;;;;;;;0.74;85.27;102584.78;15680379;28;20446;-51
2024/01/12 02:29:51;;;;;;;2.55;1.75;;;;;;;0.64;85.94;102587.19;15660259;28;20037;-55
2024/01/12 02:37:27;;;;;;;0.90;0.77;;;;;;;0.75;86.19;102594.44;15673674;28;20041;-54
2024/01/12 02:45:00;;;;;;;0.00;0.00;;;;;;;1.01;85.35;102603.25;15668023;28;20091;-51
2024/01/12 02:52:35;;;;;;;;;;;;;;;0.93;84.90;102609.09;15676026;28;20057;-54
2024/01/12 03:00:09;;;;;;;0.00;0.00;;;;;;;0.78;85.23;102588.91;15675962;28;20369;-53
2024/01/12 03:07:44;;;;;;;0.00;0.00;;;;;;;1.01;84.94;102601.47;15672244;28;20045;-53
2024/01/12 03:15:18;;;;;;;1.02;1.02;;;;;;;0.86;85.39;102591.06;15675564;28;20056;-52
2024/01/12 03:22:53;;;;;;;0.52;0.52;;;;;;;0.91;84.67;102586.31;15661760;28;20091;-56
2024/01/12 03:30:26;;;;;;;0.00;0.00;;;;;;;0.61;85.98;102590.03;15675962;28;20428;-48
2024/01/12 03:38:01;;;;;;;0.00;0.00;;;;;;;1.01;86.09;102576.81;15661583;28;20059;-54
2024/01/12 03:45:37;;;;;;;0.00;0.00;;;;;;;1.04;84.36;102554.63;15668498;28;20044;-50
2024/01/12 03:53:12;;;;;;;0.10;0.10;;;;;;;0.84;83.87;102537.44;15669442;28;20493;-50
2024/01/12 04:00:46;;;;;;;0.05;0.05;;;;;;;1.00;84.79;102524.91;15669674;28;20136;-51
2024/01/12 04:08:23;;;;;;;0.10;0.10;;;;;;;0.65;86.11;102525.47;15669150;28;20048;-54
2024/01/12 04:15:57;;;;;;;0.35;0.35;;;;;;;1.08;83.62;102533.16;15663322;28;20063;-49
2024/01/12 04:23:35;;;;;;;0.00;0.00;;;;;;;0.85;84.76;102518.00;15671510;28;20111;-54
2024/01/12 04:31:09;;;;;;;0.00;0.00;;;;;;;1.17;83.23;102527.25;15671395;28;20048;-50
2024/01/12 04:38:44;;;;;;;0.65;0.55;;;;;;;1.41;82.10;102508.00;15668214;28;20053;-50
2024/01/12 04:46:18;;;;;;;0.00;0.00;;;;;;;1.18;82.55;102513.06;15668084;28;20127;-50
2024/01/12 04:53:54;;;;;;;0.00;0.00;;;;;;;0.94;81.95;102514.75;15654473;28;20095;-51
2024/01/12 05:01:27;;;;;;;0.80;0.75;;;;;;;0.89;82.68;102504.47;15633608;28;20100;-51
2024/01/12 05:09:06;;;;;;;0.00;0.00;;;;;;;0.60;84.32;102510.84;15648661;28;20119;-48
2024/01/12 05:16:39;;;;;;;0.00;0.00;;;;;;;0.51;82.92;102522.88;15689928;28;20105;-54
2024/01/12 05:24:14;;;;;;;0.00;0.00;;;;;;;0.68;83.65;102535.81;15713531;28;20045;-50
2024/01/12 05:31:49;;;;;;;0.15;0.15;;;;;;;0.38;85.22;102543.97;15685430;28;20040;-46
2024/01/12 05:39:26;;;;;;;0.10;0.10;;;;;;;-0.02;86.54;102551.78;15685499;28;20413;-49
2024/01/12 05:47:06;;;;;;;0.88;0.35;;;;;;;0.16;85.49;102546.31;15681866;28;20045;-51
2024/01/12 05:54:42;;;;;;;0.00;0.00;;;;;;;0.15;85.29;102537.53;15682402;28;20088;-52
2024/01/12 06:02:16;;;;;;;0.10;0.10;;;;;;;0.15;84.41;102557.81;15684444;28;20412;-49
2024/01/12 06:09:50;;;;;;;;;;;;;;;0.10;85.54;102557.25;15681844;28;20498;-49
2024/01/12 06:17:23;;;;;;;0.38;0.38;;;;;;;0.17;84.65;102553.28;15677667;28;19924;-53
2024/01/12 06:24:58;;;;;;;;;;;;;;;0.33;83.50;102551.34;15689571;22;20088;-51
2024/01/12 06:32:31;;;;;;;0.00;0.00;;;;;;;0.40;83.83;102555.28;15676543;28;19921;-50
2024/01/12 06:40:06;;;;;;;;;;;;;;;0.69;83.29;102558.66;15679630;28;20045;-49
2024/01/12 06:47:40;;;;;;;0.00;0.00;;;;;;;0.80;81.44;102568.53;15664606;28;20327;-54
2024/01/12 06:55:14;;;;;;;;;;;;;;;0.93;81.95;102561.50;15678867;28;20045;-50
2024/01/12 07:02:48;;;;;;;0.00;0.00;;;;;;;0.74;81.58;102555.72;15677537;28;19929;-46
2024/01/12 07:10:23;;;;;;;;;;;;;;;0.82;82.74;102542.00;15678426;28;20037;-52
2024/01/12 07:17:58;;;;;;;2.47;0.57;;;;;;;1.24;80.95;102536.44;15676999;28;19930;-49
2024/01/12 07:25:33;;;;;;;0.05;0.05;;;;;;;0.66;81.95;102526.31;15675098;28;20049;-48
2024/01/12 07:33:08;;;;;;;0.00;0.00;;;;;;;0.84;81.46;102524.22;15672126;28;20087;-49
2024/01/12 07:40:42;;;;;;;0.88;0.85;;;;;;;0.70;83.53;102518.09;15643811;28;20217;-51
2024/01/12 07:48:16;;;;;;;0.00;0.00;;;;;;;0.44;84.77;102518.94;15645782;28;20044;-50
2024/01/12 07:56:02;;;;;;;0.00;0.00;;;;;;;0.62;83.77;102498.41;15675174;28;20045;-50
2024/01/12 08:03:38;;;;;;;0.00;0.00;;;;;;;0.08;84.60;102498.41;15672039;28;20080;-52
2024/01/12 08:11:12;;;;;;;0.00;0.00;;;;;;;0.23;85.03;102497.41;15651402;28;20053;-50
2024/01/12 08:18:46;;;;;;;0.00;0.00;;;;;;;-0.15;85.82;102494.59;15674180;28;20049;-48
2024/01/12 08:26:21;;;;;;;;;;;;;;;0.13;84.65;102480.47;15673824;28;20045;-51
2024/01/12 08:33:55;;;;;;;0.45;0.35;;;;;;;0.32;83.45;102488.03;15673149;28;19921;-50
2024/01/12 08:41:30;;;;;;;0.00;0.00;;;;;;;-0.01;86.04;102479.56;15674156;28;20069;-50
2024/01/12 08:49:03;;;;;;;0.05;0.05;;;;;;;0.30;85.02;102489.97;15669493;28;20490;-52
2024/01/12 08:56:38;;;;;;;;;;;;;;;0.12;84.94;102498.13;15673474;28;20049;-51
2024/01/12 09:04:11;;;;;;;0.00;0.00;;;;;;;0.65;83.04;102495.53;15669056;28;19921;-50
2024/01/12 09:11:46;;;;;;;;;;;;;;;-0.16;85.44;102492.91;15661022;28;20053;-48
2024/01/12 09:19:19;;;;;;;0.00;0.00;;;;;;;0.41;84.35;102498.84;15672479;28;19921;-51
2024/01/12 09:26:54;;;;;;;;;;;;;;;-0.20;86.05;102499.31;15654849;28;20036;-48
2024/01/12 09:34:27;;;;;;;0.00;0.00;;;;;;;0.62;84.74;102495.75;15666470;28;19964;-52
2024/01/12 09:42:02;;;;;;;1.13;1.10;;;;;;;0.26;84.16;102497.22;15661682;28;20216;-54
2024/01/12 09:49:37;;;;;;;0.17;0.17;;;;;;;0.12;85.21;102471.72;15670510;28;20049;-50
2024/01/12 09:57:13;;;;;;;0.10;0.10;;;;;;;0.19;86.45;102469.53;15682243;28;20128;-50
2024/01/12 10:04:46;;;;;;;0.00;0.00;;;;;;;0.33;85.78;102466.00;15662629;28;20469;-50
2024/01/12 10:12:22;;;;;;;0.05;0.05;;;;;;;0.33;85.42;102458.06;15650154;28;20040;-49
2024/01/12 10:19:56;;;;;;;0.00;0.00;;;;;;;-0.09;85.90;102462.56;15681268;28;20049;-49
2024/01/12 10:27:32;;;;;;;0.00;0.00;;;;;;;-0.03;85.88;102457.72;15682802;28;20608;-50
2024/01/12 10:35:06;;;;;;;0.05;0.05;;;;;;;0.04;86.62;102459.97;15684170;28;20124;-51
2024/01/12 10:42:43;;;;;;;0.98;0.98;;;;;;;0.06;84.94;102452.81;15665207;28;20064;-47
2024/01/12 10:50:19;;;;;;;0.10;0.10;;;;;;;0.08;86.93;102440.34;15678531;28;20378;-51
2024/01/12 10:57:55;;;;;;;0.20;0.20;;;;;;;-0.11;86.63;102452.09;15663835;28;20037;-49
2024/01/12 11:05:31;;;;;;;1.38;1.02;;;;;;;-0.30;87.68;102438.38;15656664;28;20502;-50
2024/01/12 11:13:07;;;;;;;0.20;0.20;;;;;;;-0.27;87.21;102436.41;15673031;28;20448;-50
2024/01/12 11:20:43;;;;;;;0.00;0.00;;;;;;;-0.28;87.99;102424.16;15680786;28;20049;-49
2024/01/12 11:28:20;;;;;;;0.20;0.20;;;;;;;-0.16;87.29;102409.31;15654824;28;20519;-49
2024/01/12 11:35:53;;;;;;;0.43;0.43;;;;;;;-0.10;88.24;102406.25;15661933;28;20055;-53
2024/01/12 11:43:29;;;;;;;0.00;0.00;;;;;;;0.04;86.78;102404.53;15678791;28;20083;-51
2024/01/12 11:51:03;;;;;;;0.15;0.15;;;;;;;-0.08;86.04;102403.53;15673361;28;20045;-51
2024/01/12 11:58:38;;;;;;;0.00;0.00;;;;;;;-0.33;86.22;102406.91;15658455;28;20090;-48
2024/01/12 12:06:13;;;;;;;0.10;0.10;;;;;;;-0.69;87.66;102395.13;15637447;28;20076;-50
2024/01/12 12:13:48;;;;;;;0.00;0.00;;;;;;;-0.13;86.68;102392.44;15610491;28;20680;-50
2024/01/12 12:21:21;;;;;;;0.08;0.08;;;;;;;-0.21;86.87;102376.25;15597278;28;20493;-49
2024/01/12 12:28:59;;;;;;;0.30;0.30;;;;;;;-0.51;85.82;102343.00;15621816;22;20045;-52
2024/01/12 12:36:33;;;;;;;1.65;0.95;;;;;;;-0.68;87.42;102351.16;15608747;28;20072;-53
2024/01/12 12:44:09;;;;;;;0.52;0.32;;;;;;;-0.73;88.24;102340.88;15609231;28;20072;-49
2024/01/12 12:51:42;;;;;;;0.00;0.00;;;;;;;-0.41;87.17;102315.09;15606346;28;20061;-52
2024/01/12 12:59:17;;;;;;;0.00;0.00;;;;;;;-0.67;88.44;102294.81;15605287;28;20057;-50
2024/01/12 13:06:50;;;;;;;0.00;0.00;;;;;;;-0.68;88.77;102277.31;15604240;28;20073;-51
2024/01/12 13:14:26;;;;;;;0.00;0.00;;;;;;;-0.92;89.23;102270.03;15604114;28;20510;-51
2024/01/12 13:22:00;;;;;;;0.00;0.00;;;;;;;-0.44;88.51;102277.50;15606649;28;20033;-53
2024/01/12 13:29:36;;;;;;;0.00;0.00;;;;;;;-0.39;87.41;102278.88;15620553;28;20433;-51
2024/01/12 13:37:09;;;;;;;0.10;0.10;;;;;;;-0.52;88.38;102276.19;15616023;28;20045;-51
2024/01/12 13:44:44;;;;;;;0.00;0.00;;;;;;;-0.83;88.74;102261.53;15614314;28;20053;-49
2024/01/12 13:52:17;;;;;;;0.00;0.00;;;;;;;-0.67;88.57;102285.13;15612311;28;20080;-50
2024/01/12 13:59:53;;;;;;;0.00;0.00;;;;;;;-0.75;88.78;102261.03;15613408;28;20203;-51
2024/01/12 14:07:27;;;;;;;0.77;0.77;;;;;;;-0.52;87.88;102251.63;15611623;28;20053;-51
2024/01/12 14:15:02;;;;;;;0.40;0.40;;;;;;;-0.62;88.63;102254.03;15612946;28;20125;-49
2024/01/12 14:22:35;;;;;;;0.63;0.63;;;;;;;-0.48;86.60;102225.91;15611415;28;20054;-51
2024/01/12 14:30:11;;;;;;;0.43;0.40;;;;;;;-0.73;86.81;102227.53;15613222;28;20478;-52
2024/01/12 14:37:45;;;;;;;0.00;0.00;;;;;;;-0.77;87.82;102220.75;15613678;28;20069;-48
2024/01/12 14:45:19;;;;;;;;;;;;;;;-0.53;86.33;102208.59;15613753;28;20052;-50
2024/01/12 14:52:53;;;;;;;0.15;0.15;;;;;;;-0.83;87.01;102200.06;15613834;28;19925;-51
2024/01/12 15:00:28;;;;;;;2.80;2.10;;;;;;;-0.39;85.45;102209.47;15613969;28;20057;-51
2024/01/12 15:08:03;;;;;;;0.88;0.40;;;;;;;-0.55;86.70;102199.94;15615039;28;20057;-50
2024/01/12 15:15:38;;;;;;;0.15;0.13;;;;;;;-0.62;86.82;102197.81;15614511;28;20045;-52
2024/01/12 15:23:11;;;;;;;0.43;0.43;;;;;;;-0.45;86.79;102215.16;15614103;28;20524;-49
2024/01/12 15:30:45;;;;;;;;;;;;;;;-0.28;85.77;102209.56;15613848;28;20049;-52
2024/01/12 15:38:20;;;;;;;0.43;0.43;;;;;;;-0.47;86.13;102219.66;15613898;28;19927;-52
2024/01/12 15:45:57;;;;;;;1.00;0.90;;;;;;;-0.42;86.95;102233.38;15611824;28;20053;-51
2024/01/12 15:53:31;;;;;;;0.52;0.52;;;;;;;-0.67;87.45;102236.81;15613345;28;20042;-51
2024/01/12 16:01:06;;;;;;;1.00;1.00;;;;;;;-0.28;85.83;102246.50;15612553;28;20103;-51
2024/01/12 16:08:40;;;;;;;0.00;0.00;;;;;;;-0.56;86.81;102253.63;15610290;28;20132;-49
2024/01/12 16:16:15;;;;;;;0.10;0.10;;;;;;;-0.55;86.40;102199.94;15612536;28;20486;-53
2024/01/12 16:23:50;;;;;;;0.17;0.17;;;;;;;-0.25;85.67;102198.81;15610920;28;20461;-49
2024/01/12 16:31:24;;;;;;;;;;;;;;;-0.49;87.25;102171.47;15604001;28;20045;-50
2024/01/12 16:38:58;;;;;;;2.17;1.15;;;;;;;-0.14;86.37;102159.38;15603089;28;20344;-49
2024/01/12 16:46:34;;;;;;;1.02;0.50;;;;;;;-0.40;86.66;102150.59;15604426;28;20136;-50
2024/01/12 16:54:07;;;;;;;0.95;0.40;;;;;;;-0.08;85.91;102151.00;15604604;28;20033;-47
2024/01/12 17:01:41;;;;;;;;;;;;;;;-0.29;85.37;102134.00;15621334;28;20478;-51
2024/01/12 17:09:16;;;;;;;0.00;0.00;;;;;;;-0.05;85.22;102113.00;15616142;28;20340;-51
2024/01/12 17:16:51;;;;;;;0.00;0.00;;;;;;;-0.21;87.10;102109.75;15607823;28;20392;-51
2024/01/12 17:24:24;;;;;;;0.38;0.38;;;;;;;0.11;86.52;102104.84;15612380;28;20042;-50
2024/01/12 17:32:00;;;;;;;0.00;0.00;;;;;;;0.20;85.14;102089.19;15609526;28;20632;-50
2024/01/12 17:39:33;;;;;;;0.73;0.73;;;;;;;0.35;85.26;102087.25;15617742;28;20164;-50
2024/01/12 17:47:08;;;;;;;0.22;0.22;;;;;;;0.01;86.72;102099.38;15615011;28;20114;-49
2024/01/12 17:54:42;;;;;;;0.00;0.00;;;;;;;-0.15;87.84;102091.69;15617087;28;20045;-51
2024/01/12 18:02:18;;;;;;;1.65;0.82;;;;;;;-0.09;87.88;102078.06;15615933;28;20067;-48
2024/01/12 18:09:51;;;;;;;0.65;0.65;;;;;;;0.02;88.20;102066.75;15615223;28;20049;-49
2024/01/12 18:17:26;;;;;;;0.40;0.40;;;;;;;-0.13;88.52;102052.84;15615271;28;20045;-52
2024/01/12 18:25:04;;;;;;;0.38;0.32;;;;;;;-0.15;90.02;102049.47;15642594;22;20412;-52
2024/01/12 18:32:40;;;;;;;1.15;1.10;;;;;;;0.17;88.60;102027.84;15737660;28;20044;-51
2024/01/12 18:40:14;;;;;;;0.10;0.10;;;;;;;0.13;88.78;102042.22;15691793;28;20041;-48
2024/01/12 18:47:48;;;;;;;1.00;0.45;;;;;;;0.20;89.60;102040.84;15675053;28;20057;-51
2024/01/12 18:55:22;;;;;;;1.33;1.27;;;;;;;0.43;89.35;102031.25;15665574;28;20060;-50
2024/01/12 19:02:57;;;;;;;0.00;0.00;;;;;;;0.09;89.32;102014.34;15676974;28;20381;-49
2024/01/12 19:10:30;;;;;;;0.52;0.52;;;;;;;0.21;89.46;102016.94;15676338;28;20040;-48
2024/01/12 19:18:05;;;;;;;0.10;0.10;;;;;;;0.28;89.00;102016.50;15676198;28;20033;-47
2024/01/12 19:25:38;;;;;;;0.03;0.03;;;;;;;0.23;89.23;102030.91;15674884;28;20056;-47
2024/01/12 19:33:12;;;;;;;0.52;0.40;;;;;;;0.56;88.72;102039.09;15674370;28;20056;-47
2024/01/12 19:40:46;;;;;;;0.45;0.40;;;;;;;0.58;87.95;102011.63;15674885;28;20055;-48
2024/01/12 19:48:23;;;;;;;0.20;0.20;;;;;;;0.44;88.40;102001.22;15652372;28;20072;-47
2024/01/12 19:55:56;;;;;;;0.00;0.00;;;;;;;0.68;88.41;101995.91;15655535;28;20052;-50
2024/01/12 20:03:32;;;;;;;0.00;0.00;;;;;;;0.50;87.37;101972.53;15655846;28;20441;-52
2024/01/12 20:11:06;;;;;;;0.08;0.08;;;;;;;0.50;87.67;101983.09;15642116;28;20072;-49
2024/01/12 20:18:44;;;;;;;0.30;0.30;;;;;;;0.81;87.03;101987.91;15655955;28;20045;-48
2024/01/12 20:26:18;;;;;;;0.38;0.35;;;;;;;0.57;88.44;101996.72;15655884;28;20087;-51
2024/01/12 20:33:53;;;;;;;0.43;0.43;;;;;;;1.00;87.20;101985.53;15672751;28;20045;-51
2024/01/12 20:41:26;;;;;;;0.13;0.13;;;;;;;0.75;87.13;101997.16;15670101;28;20055;-48
2024/01/12 20:49:01;;;;;;;1.05;0.98;;;;;;;1.12;85.70;101968.75;15658681;28;20076;-49
2024/01/12 20:56:35;;;;;;;0.15;0.15;;;;;;;0.94;87.65;101971.00;15645480;28;20537;-48
2024/01/12 21:04:11;;;;;;;0.40;0.40;;;;;;;0.85;86.60;101962.94;15662585;28;20102;-50
2024/01/12 21:11:44;;;;;;;1.02;1.02;;;;;;;0.82;87.41;101953.44;15661525;28;20678;-50
2024/01/12 21:19:20;;;;;;;0.20;0.20;;;;;;;0.88;86.67;101942.38;15662339;28;20560;-52
2024/01/12 21:26:54;;;;;;;0.30;0.30;;;;;;;0.87;86.96;101938.06;15662407;28;20140;-48
2024/01/12 21:34:32;;;;;;;0.43;0.43;;;;;;;0.91;86.16;101930.75;15664878;28;20045;-47
2024/01/12 21:42:10;;;;;;;0.10;0.10;;;;;;;0.92;87.26;101916.56;15669904;28;20037;-47
2024/01/12 21:49:46;;;;;;;6.03;3.30;;;;;;;0.75;87.38;101909.94;15673401;28;20052;-49
2024/01/12 21:57:20;;;;;;;0.55;0.15;;;;;;;0.86;86.81;101861.53;15677884;28;20044;-49
2024/01/12 22:04:58;;;;;;;0.10;0.10;;;;;;;1.06;86.60;101900.47;15676131;28;20510;-47
2024/01/12 22:12:31;;;;;;;0.17;0.17;;;;;;;0.86;86.32;101887.97;15679381;28;20045;-47
2024/01/12 22:20:10;;;;;;;0.10;0.10;;;;;;;0.91;86.86;101889.28;15659987;28;20095;-46
2024/01/12 22:27:44;;;;;;;0.22;0.22;;;;;;;0.86;87.34;101870.31;15677575;28;20143;-50
2024/01/12 22:35:19;;;;;;;1.08;1.08;;;;;;;0.88;87.06;101865.72;15674966;28;20477;-49
2024/01/12 22:42:52;;;;;;;0.88;0.88;;;;;;;1.32;85.64;101876.44;15662053;28;20118;-49
2024/01/12 22:50:27;;;;;;;0.10;0.10;;;;;;;1.31;85.31;101872.94;15676842;28;20057;-50
2024/01/12 22:58:01;;;;;;;0.10;0.10;;;;;;;1.26;84.44;101865.38;15660367;28;20087;-53
2024/01/12 23:05:37;;;;;;;0.00;0.00;;;;;;;1.15;85.49;101848.66;15657227;28;20041;-47
2024/01/12 23:13:10;;;;;;;0.95;0.65;;;;;;;1.02;85.75;101835.56;15672728;28;20060;-49
2024/01/12 23:20:45;;;;;;;0.10;0.10;;;;;;;1.24;86.78;101835.53;15674376;28;20045;-50
2024/01/12 23:28:19;;;;;;;0.20;0.20;;;;;;;1.22;85.55;101844.59;15655878;28;20351;-46
2024/01/12 23:35:58;;;;;;;1.88;1.17;;;;;;;1.20;86.42;101833.28;15654694;28;20055;-49
2024/01/12 23:43:32;;;;;;;0.00;0.00;;;;;;;1.25;85.92;101828.44;15670199;28;20083;-47
2024/01/12 23:51:08;;;;;;;0.05;0.05;;;;;;;1.24;86.51;101816.19;15666913;28;20033;-47
2024/01/12 23:58:42;;;;;;;0.38;0.38;;;;;;;1.23;87.26;101803.94;15672156;28;20102;-49
